Tiempo atmosférico en la estación meteorológica de Colmenar Viejo, Madrid (1004 m.)

Fecha
DESCASC
Temp. máxima en grados centígrados (hora)
DESCASC
Temp. mínima en grados centígrados (hora)
DESCASC
Temp. media en grados centígrados
DESCASC
Racha de viento máxima en m/sg (hora)
DESCASC
Velocidad máxima media en intervalos de 10 minutos(hora)
DESCASC
Precipitaciones diarias en mm
DESCASC
Precipitaciones de 00:00 a 06:00 en mm
DESCASC
Precipitaciones de 06:00 a 12:00 en mm
DESCASC
Precipitaciones de 12:00 a 18:00 en mm
DESCASC
Precipitaciones de 18:00 a 24:00 en mm
DESCASC
17-08-2017 32.9 (17:30) 20.8 (07:00) 26.9 7.78 (06:20) 5.56 (06:20) 0 0 0 0 0
16-08-2017 31.8 (16:40) 18.2 (07:10) 25 6.11 (19:40) 3.89 (19:50) 0 0 0 0 0
15-08-2017 30.8 (16:30) 19.3 (00:00) 25 9.17 (17:30) 5 (18:40) 0 0 0 0 0
14-08-2017 31.5 (17:30) 18.4 (06:20) 24.9 8.61 (16:50) 4.17 (01:20) 0 0 0 0 0
13-08-2017 30.5 (17:20) 17 (00:00) 23.8 9.17 (01:30) 5.56 (03:30) 0 0 0 0 0
12-08-2017 29.4 (17:30) 14.1 (00:00) 21.8 9.17 (04:00) 5.56 (00:50) 0 0 0 0 0
11-08-2017 26.6 (17:30) 8.5 (00:00) 17.6 9.44 (12:40) 5.28 (01:00) 0 0 0 0 0
10-08-2017 23.9 (19:00) 7.8 (00:00) 15.8 13.61 (01:10) 7.22 (01:10) 0.5 0 0 0.5 0
09-08-2017 26 (16:30) 13.3 (00:00) 19.7 13.89 (22:50) 5.83 (22:20) 0 0 0 0 0
08-08-2017 26 (17:20) 13.2 (00:00) 19.6 10 (12:50) 4.72 (14:20) 0 0 0 0 0
07-08-2017 31.6 (16:40) 17.2 (00:00) 24.4 13.06 (19:40) 7.22 (18:10) 0 0 0 0 0
06-08-2017 32.8 (18:10) 19.7 (00:00) 26.3 9.72 (08:50) 6.39 (08:40) 0 0 0 0 0
05-08-2017 35.3 (17:10) 23.5 (00:00) 29.4 15.28 (18:40) 5.28 (18:10) 0 0 0 0 0
04-08-2017 34.5 (16:50) 20.5 (00:00) 27.5 6.39 (16:50) 3.61 (20:20) 0 0 0 0 0
03-08-2017 33.2 (18:00) 19.1 (00:00) 26.2 9.17 (11:50) 3.89 (19:10) 0 0 0 0 0
02-08-2017 30.7 (16:50) 18 (00:00) 24.4 10 (12:00) 3.89 (09:20) 0 0 0 0 0
01-08-2017 28.3 (17:50) 18.7 (00:00) 23.5 9.17 (15:30) 3.89 (17:30) 0 0 0 0 0
31-07-2017 29.8 (16:30) 19.3 (00:00) 24.5 12.22 (14:20) 5.83 (14:20) 0 0 0 0 0
30-07-2017 32.7 (17:00) 20.3 (00:00) 26.5 13.61 (16:40) 7.22 (19:30) 0 0 0 0 0
29-07-2017 33.6 (17:10) 20.5 (00:00) 27 8.89 (15:50) 4.44 (19:10) 0 0 0 0 0
28-07-2017 33.5 (17:40) 20 (00:00) 26.8 10.83 (14:20) 5.28 (19:10) 0 0 0 0 0
27-07-2017 33.9 (18:00) 19.8 (00:00) 26.9 8.89 (18:30) 3.89 (15:50) 0 0 0 0 0
26-07-2017 30.6 (18:30) 13.7 (00:00) 22.2 12.78 (00:10) 5.83 (00:10) 0 0 0 0 0
25-07-2017 28.1 (16:50) 12.1 (00:00) 20.1 12.78 (23:59) 5.56 (20:50) 0 0 0 0 0
24-07-2017 28.9 (18:40) 16.5 (00:00) 22.7 11.11 (12:50) 4.17 (20:20) 0 0 0 0 0
23-07-2017 30.5 (16:50) 18.4 (00:00) 24.4 10 (13:40) 3.89 (17:00) 0 0 0 0 0
22-07-2017 28.5 (16:40) 15.9 (00:00) 22.2 10.28 (17:40) 4.44 (18:30) 0 0 0 0 0
21-07-2017 27.7 (19:10) 17.4 (00:00) 22.6 13.33 (12:50) 5 (14:00) 0 0 0 0 0
20-07-2017 28.1 (18:00) 15.5 (00:00) 21.8 9.44 (13:50) 3.33 (16:20) 0 0 0 0 0
19-07-2017 28.2 (17:20) 19.5 (00:00) 23.9 11.39 (15:50) 4.72 (19:50) 0 0 0 0 0

Gráficas

Temp. máximas Temp. mínimas Temp. medias Precipitaciones Rachas de viento máximas Velocidades máximas media en intervalos de 10 minutos

Datos horarios

Fecha y hora oficial Temperatura (ºC) Velocidad del viento (km/h) Dirección del viento Racha (km/h) Dirección de racha Precipitación (mm) Presión (hPa) Tendencia (hPa) Humedad (%)
2017-08-17 23:00:00 26.3 6 Norte 12 Noroeste 0 906.1 0.3 35
2017-08-17 22:00:00 27.3 4 Oeste 10 Sudoeste 0 906 0.2 33
2017-08-17 21:00:00 29 6 Sudoeste 17 Sudeste 0 905.8 -0.2 32
2017-08-17 20:00:00 31 8 Sur 22 Sur 0 905.8 -0.4 31
2017-08-17 19:00:00 31.8 9 Sudoeste 24 Sur 0 905.8 -0.7 31
2017-08-17 18:00:00 32.1 11 Sur 22 Sur 0 906 -1.2 31
2017-08-17 17:00:00 32.4 5 Sudeste 21 Sudeste 0 906.2 -1.5 32
2017-08-17 16:00:00 31.6 10 Sur 21 Sudeste 0 906.5 -1.4 33
2017-08-17 15:00:00 31.1 5 Sur 21 Sur 0 907.2 -1.2 34
2017-08-17 14:00:00 30.1 8 Sudeste 21 Sur 0 907.7 -0.7 36
2017-08-17 13:00:00 29.2 9 Sudeste 18 Este 0 907.9 -0.6 40
2017-08-17 12:00:00 28.1 7 Este 22 Sudeste 0 908.4 0.1 42
2017-08-17 11:00:00 26.1 4 Este 17 Este 0 908.4 0.4 45
2017-08-17 10:00:00 23.6 15 Este 23 Nordeste 0 908.5 0.9 47
2017-08-17 09:00:00 22.5 13 Nordeste 24 Este 0 908.3 1 48
2017-08-17 08:00:00 21.1 17 Este 27 Nordeste 0 908 0.9 49
2017-08-17 07:00:00 21 8 Nordeste 28 Este 0 907.6 0.1 49
2017-08-17 06:00:00 21.5 16 Este 26 Nordeste 0 907.3 -0.1 45
2017-08-17 05:00:00 21.6 9 Nordeste 28 Nordeste 0 907.1 -0.4 43
2017-08-17 04:00:00 21.6 8 Norte 18 Nordeste 0 907.5 0 39
2017-08-17 03:00:00 23 6 Nordeste 24 Nordeste 0 907.4 0.1 38
2017-08-17 02:00:00 23.9 12 Nordeste 27 Nordeste 0 907.5 0.2 34
2017-08-17 01:00:00 23.8 8 Este 21 Este 0 907.5 0.3 33
2017-08-17 00:00:00 24.4 8 Norte 18 Nordeste 0 907.3 0.5 32
2017-08-16 23:00:00 24.7 6 Norte 15 Norte 0 907.3 0.9 32
2017-08-16 22:00:00 25.6 8 Norte 18 Nordeste 0 907.2 1 31
2017-08-16 21:00:00 27.8 9 Nordeste 18 Nordeste 0 906.8 0.5 30
2017-08-16 20:00:00 29.6 12 Sudeste 22 Este 0 906.4 0 27
2017-08-16 19:00:00 30.9 10 Sudeste 21 Sudeste 0 906.2 -0.5 27
2017-08-16 18:00:00 31.6 7 Sudoeste 20 Sudoeste 0 906.3 -1 27
2017-08-16 17:00:00 31.1 7 Este 20 Sudoeste 0 906.4 -1.1 27
2017-08-16 16:00:00 31 5 Sudoeste 19 Sudoeste 0 906.7 -1.1 28
2017-08-16 15:00:00 29.8 10 Sur 21 Sur 0 907.3 -0.6 29
2017-08-16 14:00:00 29.6 7 Sur 18 Este 0 907.5 -0.5 30
2017-08-16 13:00:00 28.4 5 Sudeste 22 Sudeste 0 907.8 -0.1 32
2017-08-16 12:00:00 27.2 10 Sudeste 21 Este 0 907.9 0 33
2017-08-16 11:00:00 26.5 12 Este 19 Este 0 908 0.5 33
2017-08-16 10:00:00 24.6 2 Sur 7 Noroeste 0 907.9 0.8 36
2017-08-16 09:00:00 21.9 2 Noroeste 9 Noroeste 0 907.9 1.1 38
2017-08-16 08:00:00 19.6 5 Norte 10 Norte 0 907.5 0.9 39
2017-08-16 07:00:00 18.4 2 Noroeste 10 Noroeste 0 907.1 0.5 39
2017-08-16 06:00:00 18.8 5 Noroeste 8 Noroeste 0 906.8 0.4 39
2017-08-16 05:00:00 19.9 4 Noroeste 9 Oeste 0 906.6 -0.1 38
2017-08-16 04:00:00 20.5 6 Oeste 10 Oeste 0 906.6 0.2 38
2017-08-16 03:00:00 21 4 Noroeste 8 Noroeste 0 906.4 -0.4 37
2017-08-16 02:00:00 21.2 4 Noroeste 10 Oeste 0 906.7 0.2 37
2017-08-16 01:00:00 21.8 5 Oeste 13 Oeste 0 906.4 0.3 35
2017-08-16 00:00:00 23.1 4 Noroeste 12 Noroeste 0 906.8 1.5 36
2017-08-15 23:00:00 24 4 Noroeste 17 Noroeste 0 906.5 1.6 35
2017-08-15 22:00:00 25.5 9 Norte 19 Norte 0 906.1 1.2 33
2017-08-15 21:00:00 27.6 9 Norte 21 Noroeste 0 905.3 0.3 32
2017-08-15 20:00:00 28.5 10 Sudoeste 22 Oeste 0 904.9 -0.2 30
2017-08-15 19:00:00 28.9 10 Sudoeste 33 Sudoeste 0 904.9 -0.5 30
2017-08-15 18:00:00 29.7 12 Sudoeste 33 Sudoeste 0 905 -0.7 33
2017-08-15 17:00:00 30 13 Sudoeste 32 Sudoeste 0 905.1 -0.8 35
2017-08-15 16:00:00 30.3 10 Sudoeste 28 Sur 0 905.4 -1.1 34
2017-08-15 15:00:00 29.4 14 Sudoeste 30 Sudoeste 0 905.7 -0.7 35
2017-08-15 14:00:00 28.9 13 Sur 26 Oeste 0 905.9 -0.8 37
2017-08-15 13:00:00 27.5 9 Sur 19 Sudeste 0 906.5 0 42
2017-08-15 12:00:00 26.5 5 Este 13 Este 0 906.4 0.1 45
2017-08-15 11:00:00 25.2 4 Este 13 Este 0 906.7 0.7 47
2017-08-15 10:00:00 23.5 6 Este 12 Este 0 906.5 1.3 50
2017-08-15 09:00:00 21.5 5 Este 8 Este 0 906.3 1.3 51
2017-08-15 08:00:00 19.5 4 Este 8 Este 0 906 1.1 54
2017-08-15 07:00:00 19.7 3 Este 8 Este 0 905.2 0.2 51
2017-08-15 06:00:00 20.4 6 Este 12 Este 0 905 0 48
2017-08-15 05:00:00 20.9 0 Calma 5 Nordeste 0 904.9 -0.5 48
2017-08-15 04:00:00 21.4 5 Este 11 Nordeste 0 905 -0.4 49
2017-08-15 03:00:00 22.2 7 Este 12 Este 0 905 -0.3 49
2017-08-15 02:00:00 23 8 Este 15 Sudeste 0 905.4 0.6 46
2017-08-15 01:00:00 24.2 9 Sudeste 23 Sudeste 0 905.4 1.6 41
2017-08-15 00:00:00 25.4 10 Sudeste 24 Este 0 905.3 1.9 35
2017-08-14 23:00:00 26.5 8 Sudeste 13 Sur 0 904.8 1.7 32
2017-08-14 22:00:00 27.5 5 Sudeste 11 Sur 0 903.8 0.6 32
2017-08-14 21:00:00 28.4 9 Sur 18 Sudoeste 0 903.4 0 31
2017-08-14 20:00:00 29.6 6 Sudoeste 24 Sudoeste 0 903.1 -0.6 31
2017-08-14 19:00:00 30.7 15 Sur 27 Sur 0 903.2 -0.9 31
2017-08-14 18:00:00 30.9 12 Sur 28 Sudoeste 0 903.4 -1.3 31
2017-08-14 17:00:00 30.9 11 Sur 31 Sur 0 903.7 -1.4 33
2017-08-14 16:00:00 30 13 Sur 25 Sur 0 904.1 -1.2 36
2017-08-14 15:00:00 29.2 10 Sudeste 22 Sudeste 0 904.7 -0.8 37
2017-08-14 14:00:00 27.9 8 Sudeste 23 Este 0 905.1 -0.5 40
2017-08-14 13:00:00 27.5 9 Sudeste 22 Sudeste 0 905.3 -0.3 43
2017-08-14 12:00:00 25.5 9 Sudeste 19 Sudeste 0 905.5 -0.2 45
2017-08-14 11:00:00 24.2 6 Este 15 Este 0 905.6 0.2 48
2017-08-14 10:00:00 23 5 Este 12 Este 0 905.6 0.7 53
2017-08-14 09:00:00 20.5 2 Sudeste 5 Este 0 905.7 0.7 57
2017-08-14 08:00:00 18.7 0 Calma 8 Este 0 905.4 0.3 58
2017-08-14 07:00:00 18.5 4 Nordeste 10 Norte 0 904.9 -0.2 54
2017-08-14 06:00:00 18.7 6 Nordeste 13 Este 0 905 -0.1 55
2017-08-14 05:00:00 19.5 7 Este 11 Este 0 905.1 0.2 51
2017-08-14 04:00:00 20 4 Este 8 Norte 0 905.1 0.7 45
2017-08-14 03:00:00 20.5 5 Norte 14 Sudeste 0 905.1 0.7 42
2017-08-14 02:00:00 21.9 10 Sudeste 27 Sudeste 0 904.9 0.6 40
2017-08-14 01:00:00 23.1 3 Oeste 6 Noroeste 0 904.4 0.5 32
2017-08-14 00:00:00 22.7 4 Noroeste 7 Noroeste 0 904.4 0.7 33
2017-08-13 23:00:00 23.7 5 Noroeste 7 Norte 0 904.3 0.6 32
2017-08-13 22:00:00 25.1 4 Sur 13 Sudeste 0 903.9 0.2 30
2017-08-13 21:00:00 26.9 6 Sur 15 Sur 0 903.7 -0.4 28
2017-08-13 20:00:00 28.9 10 Sur 17 Sur 0 903.7 -0.7 27
2017-08-13 19:00:00 29.8 6 Sur 21 Sudoeste 0 903.7 -1.3 27
2017-08-13 18:00:00 30.1 8 Sur 23 Sur 0 904.1 -1.4 27
2017-08-13 17:00:00 30.2 4 Sur 24 Sudeste 0 904.4 -1.6 28
2017-08-13 16:00:00 29.5 9 Sur 26 Sudeste 0 905 -1.4 29
2017-08-13 15:00:00 28.5 6 Sur 21 Sudeste 0 905.5 -1.3 31
2017-08-13 14:00:00 27.8 10 Sudeste 18 Sur 0 906 -1 33
2017-08-13 13:00:00 26.9 8 Sudeste 16 Este 0 906.4 -0.5 37
2017-08-13 12:00:00 25.6 8 Este 16 Este 0 906.8 0 39
2017-08-13 11:00:00 24.1 5 Sudeste 14 Sudeste 0 907 0.4 41
2017-08-13 10:00:00 21.8 4 Norte 9 Norte 0 906.9 0.6 42
2017-08-13 09:00:00 19.9 0 Calma 10 Nordeste 0 906.8 0.4 42
2017-08-13 08:00:00 17.7 6 Nordeste 13 Nordeste 0 906.6 0.1 41
2017-08-13 07:00:00 18 8 Nordeste 13 Nordeste 0 906.3 -0.2 39
2017-08-13 06:00:00 18 5 Nordeste 18 Nordeste 0 906.4 0 37
2017-08-13 05:00:00 19.4 13 Nordeste 25 Este 0 906.5 -0.4 34
2017-08-13 04:00:00 19.9 10 Nordeste 30 Este 0 906.5 -0.2 33
2017-08-13 03:00:00 20.8 9 Nordeste 26 Nordeste 0 906.4 -0.6 32
2017-08-13 02:00:00 21.5 14 Nordeste 33 Este 0 906.9 -0.1 31
2017-08-13 01:00:00 21.2 5 Noroeste 9 Norte 0 906.7 -0.1 29
2017-08-13 00:00:00 21.1 5 Noroeste 6 Noroeste 0 907 0.4 29
2017-08-12 23:00:00 22.1 5 Noroeste 8 Noroeste 0 907 0.6 29
2017-08-12 22:00:00 23.9 4 Sudoeste 9 Sur 0 906.8 0.2 27
2017-08-12 21:00:00 25.8 5 Sur 14 Sur 0 906.6 0 26
2017-08-12 20:00:00 27.6 8 Sudeste 15 Sur 0 906.4 -0.7 25
2017-08-12 19:00:00 28.4 9 Sur 18 Sudeste 0 906.6 -1.2 25
2017-08-12 18:00:00 29.1 5 Sur 15 Sur 0 906.6 -1.6 26
2017-08-12 17:00:00 28.9 6 Sudoeste 17 Oeste 0 907.1 -1.8 26
2017-08-12 16:00:00 28.4 0 Calma 18 Sudeste 0 907.8 -1.5 27
2017-08-12 15:00:00 26.8 6 Sur 17 Sudoeste 0 908.2 -1.6 27
2017-08-12 14:00:00 26 9 Este 17 Este 0 908.9 -0.8 28
2017-08-12 13:00:00 25.3 3 Nordeste 20 Este 0 909.3 -0.3 29
2017-08-12 12:00:00 23.4 4 Este 15 Sur 0 909.8 0.3 30
2017-08-12 11:00:00 21.5 6 Este 17 Este 0 909.7 0.4 32
2017-08-12 10:00:00 20.5 11 Este 18 Este 0 909.6 0.8 33
2017-08-12 09:00:00 18.8 2 Este 12 Nordeste 0 909.5 1 36
2017-08-12 08:00:00 15.5 6 Norte 13 Norte 0 909.3 0.7 38
2017-08-12 07:00:00 14.5 4 Nordeste 8 Nordeste 0 908.8 0.1 41
2017-08-12 06:00:00 14.8 4 Norte 21 Este 0 908.5 -0.2 39
2017-08-12 05:00:00 17.1 17 Este 30 Este 0 908.6 -0.3 33
2017-08-12 04:00:00 17 18 Nordeste 33 Este 0 908.7 0.2 36
2017-08-12 03:00:00 16.5 17 Este 29 Nordeste 0 908.7 0.3 39
2017-08-12 02:00:00 17.6 13 Nordeste 25 Nordeste 0 908.9 0.7 36
2017-08-12 01:00:00 18.2 17 Este 29 Nordeste 0 908.5 0.7 33
2017-08-12 00:00:00 19.4 8 Nordeste 28 Nordeste 0 908.4 0.9 29
2017-08-11 23:00:00 19.9 12 Nordeste 27 Norte 0 908.2 1 29
2017-08-11 22:00:00 20.5 9 Nordeste 26 Norte 0 907.8 0.7 27
2017-08-11 21:00:00 22.4 7 Nordeste 27 Norte 0 907.5 0 26
2017-08-11 20:00:00 25.4 10 Este 17 Este 0 907.2 -0.5 25
2017-08-11 19:00:00 26.3 5 Sur 17 Sudeste 0 907.1 -1.1 28
2017-08-11 18:00:00 26 9 Sudeste 19 Este 0 907.5 -1.3 28
2017-08-11 17:00:00 25.6 8 Sur 27 Sudeste 0 907.7 -1.2 30
2017-08-11 16:00:00 24.9 7 Sur 19 Sudoeste 0 908.2 -1.2 30
2017-08-11 15:00:00 23.9 6 Sur 18 Sudeste 0 908.8 -0.7 33
2017-08-11 14:00:00 22.2 7 Sur 19 Sur 0 908.9 -0.7 35
2017-08-11 13:00:00 19.8 7 Sur 34 Sudeste 0 909.4 -0.3 40
2017-08-11 12:00:00 18.7 4 Sudeste 22 Sudeste 0 909.5 -0.1 44
2017-08-11 11:00:00 16.2 7 Sur 19 Sudeste 0 909.6 0.1 51
2017-08-11 10:00:00 14.2 3 Sudoeste 7 Oeste 0 909.7 0.3 56
2017-08-11 09:00:00 12.4 3 Sur 8 Norte 0 909.6 0.2 60
2017-08-11 08:00:00 9.5 5 Norte 11 Norte 0 909.5 -0.2 66
2017-08-11 07:00:00 8.5 3 Noroeste 15 Este 0 909.4 -0.1 69
2017-08-11 06:00:00 9.7 8 Este 13 Este 0 909.4 0 63
2017-08-11 05:00:00 10.2 4 Sudoeste 7 Sudoeste 0 909.7 -0.2 59
2017-08-11 04:00:00 11.7 3 Nordeste 13 Noroeste 0 909.5 -0.3 53
2017-08-11 03:00:00 12.8 6 Nordeste 27 Este 0 909.4 0 51
2017-08-11 02:00:00 13.8 7 Este 26 Este 0 909.9 0.5 45
2017-08-11 01:00:00 15.5 19 Este 30 Norte 0 909.8 0.9 42
2017-08-11 00:00:00 16.6 12 Nordeste 32 Nordeste 0 909.4 0.8 40
2017-08-10 23:00:00 16.9 13 Nordeste 36 Norte 0 909.4 1 40
2017-08-10 22:00:00 18.1 13 Nordeste 32 Norte 0 908.9 0.5 37
2017-08-10 21:00:00 20.4 8 Norte 23 Nordeste 0 908.6 0 34
2017-08-10 20:00:00 22.8 5 Sudeste 17 Sudeste 0 908.4 -0.5 33
2017-08-10 19:00:00 23.7 3 Sudoeste 20 Nordeste 0 908.4 -1.1 33
2017-08-10 18:00:00 23.7 5 Sur 20 Sudeste 0 908.6 -1.2 33
2017-08-10 17:00:00 23 7 Sudeste 22 Este 0 908.9 -1.3 35
2017-08-10 16:00:00 22.1 11 Sudeste 23 Sudeste 0 909.5 -0.7 36
2017-08-10 15:00:00 21.3 6 Nordeste 30 Sur 0 909.8 -0.6 36
2017-08-10 14:00:00 20.5 7 Este 26 Oeste 0 910.2 0 37
2017-08-10 13:00:00 18.7 10 Sudeste 42 Este 0.5 910.2 0 39
2017-08-10 12:00:00 17.4 11 Sudeste 38 Sudeste 0 910.4 0.5 41
2017-08-10 11:00:00 16.6 6 Sudeste 24 Este 0 910.2 0.9 43
2017-08-10 10:00:00 14.5 3 Sur 10 Sur 0 910.2 1.5 47
2017-08-10 09:00:00 11 0 Calma 9 Sur 0 909.9 1.4 52
2017-08-10 08:00:00 8.9 3 Sudoeste 18 Nordeste 0 909.3 0.8 54
2017-08-10 07:00:00 8 8 Noroeste 14 Noroeste 0 908.7 0.2 55
2017-08-10 06:00:00 9.8 6 Nordeste 21 Nordeste 0 908.5 0 51
2017-08-10 05:00:00 10 11 Nordeste 31 Nordeste 0 908.5 0.2 52
2017-08-10 04:00:00 10.6 22 Nordeste 34 Este 0 908.5 0.9 51
2017-08-10 03:00:00 11.3 17 Nordeste 33 Nordeste 0 908.5 1.1 50
2017-08-10 02:00:00 11.4 15 Nordeste 49 Norte 0 908.3 1.8 51
2017-08-10 01:00:00 12.4 23 Norte 47 Norte 0 907.6 1.8 48
2017-08-10 00:00:00 13.3 20 Norte 50 Norte 0 907.4 2.6 44
2017-08-09 23:00:00 14.5 17 Nordeste 50 Norte 0 906.5 2.7 41
2017-08-09 22:00:00 15.3 15 Nordeste 44 Nordeste 0 905.8 2.4 38
2017-08-09 21:00:00 17.6 12 Nordeste 41 Norte 0 904.8 1.7 36
2017-08-09 20:00:00 20.6 19 Norte 44 Norte 0 903.8 1.2 35
2017-08-09 19:00:00 22.3 16 Norte 35 Norte 0 903.4 0.4 35
2017-08-09 18:00:00 24.4 10 Norte 33 Norte 0 903.1 0 33
2017-08-09 17:00:00 25.9 6 Nordeste 24 Noroeste 0 902.6 -0.5 33
2017-08-09 16:00:00 25.6 3 Oeste 22 Sudoeste 0 903 -0.2 30
2017-08-09 15:00:00 24.4 13 Oeste 30 Oeste 0 903.1 -0.3 35
2017-08-09 14:00:00 23.3 6 Sur 29 Este 0 903.1 -0.3 40
2017-08-09 13:00:00 23.1 5 Sudeste 30 Sudeste 0 903.2 0 43
2017-08-09 12:00:00 21.7 3 Nordeste 22 Sur 0 903.4 0.3 48
2017-08-09 11:00:00 19.6 5 Sur 21 Sudeste 0 903.4 0.4 58
2017-08-09 10:00:00 18.7 10 Sudeste 28 Sudeste 0 903.2 0.1 52
2017-08-09 09:00:00 17.9 4 Este 11 Nordeste 0 903.1 0.1 46
2017-08-09 08:00:00 15.3 6 Nordeste 14 Nordeste 0 903 -0.1 47
2017-08-09 07:00:00 14.1 8 Norte 22 Norte 0 903.1 -0.3 49
2017-08-09 06:00:00 14.5 5 Noroeste 20 Nordeste 0 903 -0.8 45
2017-08-09 05:00:00 14.4 8 Este 13 Este 0 903.1 -0.5 44
2017-08-09 04:00:00 15 3 Oeste 9 Oeste 0 903.4 -0.1 43
2017-08-09 03:00:00 15.8 4 Sudoeste 11 Este 0 903.8 0.5 41
2017-08-09 02:00:00 16.8 5 Nordeste 17 Este 0 903.6 -0.1 39
2017-08-09 01:00:00 17.4 3 Este 13 Este 0 903.5 -0.2 39
2017-08-09 00:00:00 17.7 3 Noroeste 6 Noroeste 0 903.3 0.1 38
2017-08-08 23:00:00 18.9 4 Noroeste 16 Norte 0 903.7 0.8 37
2017-08-08 22:00:00 20.1 7 Nordeste 22 Norte 0 903.7 0.7 35
2017-08-08 21:00:00 21.9 8 Nordeste 27 Nordeste 0 903.2 0.2 33
2017-08-08 20:00:00 23.9 8 Nordeste 28 Este 0 902.9 -0.2 33
2017-08-08 19:00:00 25.3 7 Este 27 Nordeste 0 903 -0.4 33
2017-08-08 18:00:00 25.5 10 Este 30 Nordeste 0 903 -0.5 34
2017-08-08 17:00:00 25.5 7 Sudeste 24 Sudeste 0 903.1 -0.6 35
2017-08-08 16:00:00 24.4 6 Sudeste 28 Sudeste 0 903.4 -0.3 37
2017-08-08 15:00:00 24.4 10 Nordeste 32 Este 0 903.5 0 37
2017-08-08 14:00:00 23.9 4 Sur 22 Sudoeste 0 903.7 0.5 38
2017-08-08 13:00:00 23.3 9 Sudeste 36 Sudeste 0 903.7 1 38
2017-08-08 12:00:00 21.4 6 Sur 31 Sudeste 0 903.5 1.2 39
2017-08-08 11:00:00 20.8 5 Sur 16 Sudeste 0 903.2 1.4 43
2017-08-08 10:00:00 19.5 0 Calma 7 Sudoeste 0 902.7 1.4 45
2017-08-08 09:00:00 16.6 4 Noroeste 12 Oeste 0 902.3 1.4 50
2017-08-08 08:00:00 14.1 7 Oeste 13 Oeste 0 901.8 0.9 53
2017-08-08 07:00:00 13.8 4 Noroeste 9 Noroeste 0 901.3 0.4 51
2017-08-08 06:00:00 15.2 3 Este 12 Este 0 900.9 -0.2 47
2017-08-08 05:00:00 16.3 11 Este 18 Nordeste 0 900.9 -0.1 46
2017-08-08 04:00:00 16.7 2 Norte 10 Oeste 0 900.9 -0.3 42
2017-08-08 03:00:00 17.5 3 Norte 20 Oeste 0 901.1 0.1 39
2017-08-08 02:00:00 19 9 Oeste 18 Oeste 0 901 -0.2 32
2017-08-08 01:00:00 19.4 9 Oeste 19 Oeste 0 901.2 0.6 30
2017-08-08 00:00:00 22.1 7 Oeste 19 Oeste 0 901 0.9 24
2017-08-07 23:00:00 23.8 9 Oeste 20 Oeste 0 901.2 1.4 23
2017-08-07 22:00:00 25.4 10 Sudoeste 31 Oeste 0 900.6 0.8 23
2017-08-07 21:00:00 27 17 Sudoeste 39 Sudoeste 0 900.1 -0.3 22
2017-08-07 20:00:00 28.3 21 Sudoeste 47 Sudoeste 0 899.8 -1.2 20
2017-08-07 19:00:00 30.2 21 Sudoeste 45 Sudoeste 0 899.8 -1.8 18
2017-08-07 18:00:00 30.9 24 Sudoeste 45 Sudoeste 0 900.4 -1.5 18
2017-08-07 17:00:00 30.7 20 Sudoeste 39 Sur 0 901 -1.2 18
2017-08-07 16:00:00 29.8 15 Sudoeste 35 Sudoeste 0 901.6 -1.5 20
2017-08-07 15:00:00 29.9 14 Sudoeste 31 Sudoeste 0 901.9 -1.4 23
2017-08-07 14:00:00 29.3 13 Sur 28 Sudeste 0 902.2 -1.1 26
2017-08-07 13:00:00 27.8 9 Sur 29 Sudeste 0 903.1 -0.7 34
2017-08-07 12:00:00 25.7 6 Sur 24 Sudeste 0 903.3 -0.2 45
2017-08-07 11:00:00 22.7 8 Sudeste 37 Sudeste 0 903.3 0 57
2017-08-07 10:00:00 22.3 6 Sudeste 14 Sudeste 0 903.8 0.7 62
2017-08-07 09:00:00 21 5 Este 8 Este 0 903.5 0.4 64
2017-08-07 08:00:00 18.9 3 Este 5 Este 0 903.3 0.1 65
2017-08-07 07:00:00 18.8 0 Calma 6 Sudeste 0 903.1 -0.2 64
2017-08-07 06:00:00 19.7 5 Sudeste 8 Sudeste 0 903.1 -0.3 58
2017-08-07 05:00:00 20.1 4 Nordeste 10 Este 0 903.2 -0.4 60
2017-08-07 04:00:00 20.7 5 Este 14 Nordeste 0 903.3 -0.2 55
2017-08-07 03:00:00 21.4 9 Nordeste 17 Nordeste 0 903.4 0.2 46
2017-08-07 02:00:00 22.2 5 Norte 24 Nordeste 0 903.6 0.6 42
2017-08-07 01:00:00 22.7 12 Este 19 Este 0 903.5 0.8 42
2017-08-07 00:00:00 24.2 5 Oeste 17 Oeste 0 903.2 0.6 40
2017-08-06 23:00:00 25.6 7 Oeste 16 Sudoeste 0 903 0.4 32
2017-08-06 22:00:00 27.1 7 Sudoeste 21 Sudoeste 0 902.7 0 27
2017-08-06 21:00:00 29 13 Sudoeste 29 Sudoeste 0 902.6 -0.1 27
2017-08-06 20:00:00 30.9 9 Sudoeste 29 Sudoeste 0 902.6 -0.6 28
2017-08-06 19:00:00 31.8 10 Sur 26 Sudoeste 0 902.7 -0.9 28
2017-08-06 18:00:00 32.2 9 Sudoeste 21 Sur 0 902.7 -1.4 28
2017-08-06 17:00:00 32.1 8 Sur 26 Sudeste 0 903.2 -1.4 28
2017-08-06 16:00:00 31.3 10 Sudeste 24 Sudeste 0 903.6 -1.2 30
2017-08-06 15:00:00 30.2 7 Sur 27 Este 0 904.1 -1 37
2017-08-06 14:00:00 28.7 12 Este 27 Este 0 904.6 -0.3 41
2017-08-06 13:00:00 28.2 15 Este 26 Este 0 904.8 0 43
2017-08-06 12:00:00 26.5 14 Este 28 Este 0 905.1 0.6 46
2017-08-06 11:00:00 24.9 19 Este 30 Este 0 904.9 1.1 49
2017-08-06 10:00:00 23 8 Nordeste 27 Este 0 904.8 1.3 53
2017-08-06 09:00:00 21.3 14 Nordeste 35 Este 0 904.5 1.1 57
2017-08-06 08:00:00 20.3 18 Nordeste 34 Nordeste 0 903.8 0.5 59
2017-08-06 07:00:00 20.2 6 Nordeste 23 Nordeste 0 903.5 0.1 58
2017-08-06 06:00:00 20.9 10 Este 19 Este 0 903.4 -0.3 56
2017-08-06 05:00:00 21.8 10 Nordeste 23 Nordeste 0 903.3 0.2 53
2017-08-06 04:00:00 21.9 0 Calma 13 Este 0 903.4 0.2 51
2017-08-06 03:00:00 22.8 0 Calma 12 Nordeste 0 903.7 0.8 46
2017-08-06 02:00:00 24.4 5 Sudeste 15 Sudeste 0 903.1 0.2 42
2017-08-06 01:00:00 25.4 5 Nordeste 25 Nordeste 0 903.2 0.7 41
2017-08-06 00:00:00 26.2 13 Este 24 Nordeste 0 902.9 0.6 37
2017-08-05 23:00:00 27.5 4 Nordeste 17 Nordeste 0 902.9 0.7 34
2017-08-05 22:00:00 28.5 6 Norte 15 Noroeste 0 902.5 0.9 33
2017-08-05 21:00:00 30.2 6 Norte 18 Oeste 0 902.3 0.1 32
2017-08-05 20:00:00 31.7 5 Oeste 32 Oeste 0 902.2 -0.3 30
2017-08-05 19:00:00 34.8 11 Oeste 55 Sudoeste 0 901.6 -1.7 26
2017-08-05 18:00:00 34.1 13 Sudoeste 32 Oeste 0 902.2 -1.6 27
2017-08-05 17:00:00 35 11 Oeste 34 Sudoeste 0 902.5 -1.8 27
2017-08-05 16:00:00 33.9 14 Sudoeste 36 Sudoeste 0 903.3 -1.5 28
2017-08-05 15:00:00 32.5 13 Sudoeste 41 Sudoeste 0 903.8 -1.1 30
2017-08-05 14:00:00 33.3 13 Sur 26 Sur 0 904.3 -0.8 30
2017-08-05 13:00:00 32 8 Sudeste 18 Sur 0 904.8 -0.3 31
2017-08-05 12:00:00 31.6 7 Este 18 Este 0 904.9 0 32
2017-08-05 11:00:00 30.2 8 Este 14 Este 0 905.1 0.5 33
2017-08-05 10:00:00 27.9 7 Sudeste 12 Sur 0 905.1 0.6 35
2017-08-05 09:00:00 27.2 6 Este 10 Este 0 904.9 0.4 36
2017-08-05 08:00:00 24 4 Nordeste 9 Norte 0 904.6 0 37
2017-08-05 07:00:00 24.3 6 Nordeste 11 Nordeste 0 904.5 -0.3 37
2017-08-05 06:00:00 24.7 4 Norte 13 Nordeste 0 904.5 -0.4 35
2017-08-05 05:00:00 24.5 4 Norte 10 Nordeste 0 904.6 -0.4 36
2017-08-05 04:00:00 25 4 Norte 10 Nordeste 0 904.8 -0.3 37
2017-08-05 03:00:00 25.8 4 Nordeste 13 Nordeste 0 904.9 -0.3 36
2017-08-05 02:00:00 26.2 2 Sudoeste 8 Este 0 905 -0.2 35
2017-08-05 01:00:00 27 2 Noroeste 13 Noroeste 0 905.1 0.5 34
2017-08-05 00:00:00 28 6 Norte 16 Norte 0 905.2 0.8 33
2017-08-04 23:00:00 28.4 7 Norte 16 Norte 0 905.2 1.1 33
2017-08-04 22:00:00 29.7 8 Norte 16 Norte 0 904.6 0.4 32
2017-08-04 21:00:00 31.3 6 Nordeste 20 Este 0 904.4 0.1 32
2017-08-04 20:00:00 32.5 4 Norte 13 Nordeste 0 904.1 -0.8 32
2017-08-04 19:00:00 32.3 6 Sudeste 13 Sur 0 904.2 -1 31
2017-08-04 18:00:00 33.6 6 Sur 20 Sur 0 904.3 -1.5 31
2017-08-04 17:00:00 33.9 9 Sudeste 23 Sudeste 0 904.9 -1.4 31
2017-08-04 16:00:00 33.2 10 Este 21 Sur 0 905.2 -1.5 32
2017-08-04 15:00:00 32.7 7 Sudeste 22 Sudeste 0 905.8 -1.4 33
2017-08-04 14:00:00 31.4 2 Sur 18 Sur 0 906.3 -0.9 34
2017-08-04 13:00:00 30.7 4 Sudeste 14 Este 0 906.7 -0.1 35
2017-08-04 12:00:00 29.3 3 Sur 15 Sur 0 907.2 0.5 37
2017-08-04 11:00:00 27.8 6 Sur 15 Sudoeste 0 907.2 0.9 39
2017-08-04 10:00:00 26.2 6 Oeste 11 Sudoeste 0 906.8 0.7 42
2017-08-04 09:00:00 23.4 5 Noroeste 10 Oeste 0 906.7 1.1 45
2017-08-04 08:00:00 21.1 5 Noroeste 9 Norte 0 906.3 0.8 47
2017-08-04 07:00:00 20.5 4 Noroeste 9 Noroeste 0 906.1 0.7 47
2017-08-04 06:00:00 21.3 5 Noroeste 8 Este 0 905.6 0.1 45
2017-08-04 05:00:00 22.2 0 Calma 8 Este 0 905.5 -0.2 43
2017-08-04 04:00:00 22.9 5 Este 7 Este 0 905.4 -0.5 42
2017-08-04 03:00:00 23.9 4 Nordeste 10 Este 0 905.5 -0.6 40
2017-08-04 02:00:00 24.3 3 Nordeste 14 Norte 0 905.7 -0.5 39
2017-08-04 01:00:00 25.3 8 Norte 16 Norte 0 905.9 0.2 38
2017-08-04 00:00:00 25.1 4 Noroeste 8 Noroeste 0 906.1 0.9 39
2017-08-03 23:00:00 26 3 Noroeste 14 Norte 0 906.2 1.2 33
2017-08-03 22:00:00 27.5 8 Norte 14 Norte 0 905.7 0.6 29
2017-08-03 21:00:00 30.5 4 Norte 18 Oeste 0 905.2 0 25
2017-08-03 20:00:00 32.3 7 Sudoeste 27 Sur 0 905 -0.7 23
2017-08-03 19:00:00 32.4 13 Sur 23 Sur 0 905.1 -1 24
2017-08-03 18:00:00 33.1 8 Sudoeste 30 Sur 0 905.2 -1.2 25
2017-08-03 17:00:00 32.4 9 Sur 30 Sur 0 905.7 -1.3 26
2017-08-03 16:00:00 32.2 13 Sur 25 Sur 0 906.1 -1.4 26
2017-08-03 15:00:00 31.6 6 Sudoeste 27 Sudoeste 0 906.4 -1.2 27
2017-08-03 14:00:00 30.4 10 Sur 20 Sur 0 907 -0.9 30
2017-08-03 13:00:00 29.6 8 Sur 32 Sudeste 0 907.5 -0.1 30
2017-08-03 12:00:00 28.9 8 Sudeste 33 Este 0 907.6 0.3 32
2017-08-03 11:00:00 27.2 7 Este 29 Este 0 907.9 0.8 36
2017-08-03 10:00:00 24.5 5 Sudeste 23 Sudeste 0 907.6 0.4 34
2017-08-03 09:00:00 20.9 3 Noroeste 8 Noroeste 0 907.3 0.5 39
2017-08-03 08:00:00 20.1 4 Noroeste 11 Nordeste 0 907.1 0.6 42
2017-08-03 07:00:00 19.2 4 Nordeste 11 Este 0 907.2 0.6 50
2017-08-03 06:00:00 20 10 Este 14 Este 0 906.8 0 42
2017-08-03 05:00:00 20.4 7 Nordeste 13 Nordeste 0 906.5 -0.3 37
2017-08-03 04:00:00 20.8 4 Norte 8 Noroeste 0 906.6 -0.3 33
2017-08-03 03:00:00 22 4 Nordeste 19 Este 0 906.8 -0.1 32
2017-08-03 02:00:00 23.2 8 Nordeste 16 Este 0 906.8 0 30
2017-08-03 01:00:00 22.4 3 Norte 7 Norte 0 906.9 0.6 33
2017-08-03 00:00:00 23.2 6 Noroeste 13 Noroeste 0 906.9 1 33
2017-08-02 23:00:00 24.1 6 Noroeste 11 Oeste 0 906.8 1.6 30
2017-08-02 22:00:00 25.5 6 Sudoeste 14 Sudoeste 0 906.3 1 28
2017-08-02 21:00:00 27.4 8 Sur 23 Sur 0 905.9 0.7 27
2017-08-02 20:00:00 29.2 9 Sur 24 Sudeste 0 905.2 -0.2 27
2017-08-02 19:00:00 30.1 9 Sur 23 Sur 0 905.3 -0.4 27
2017-08-02 18:00:00 30.1 12 Sudeste 28 Sudeste 0 905.2 -0.8 27
2017-08-02 17:00:00 30.4 0 Calma 26 Sur 0 905.4 -0.8 28
2017-08-02 16:00:00 29.9 12 Sudeste 29 Sudeste 0 905.7 -1.1 29
2017-08-02 15:00:00 30.2 6 Sudoeste 21 Sur 0 906 -1 29
2017-08-02 14:00:00 28.9 7 Sur 18 Sur 0 906.2 -0.7 33
2017-08-02 13:00:00 27.8 5 Este 28 Sudeste 0 906.8 0.2 40
2017-08-02 12:00:00 26.6 13 Sudeste 36 Sudeste 0 907 0.4 45
2017-08-02 11:00:00 25.3 7 Este 20 Este 0 906.9 1.1 46
2017-08-02 10:00:00 23.3 13 Este 21 Este 0 906.6 1.3 49
2017-08-02 09:00:00 22.2 13 Este 30 Este 0 906.6 1 49
2017-08-02 08:00:00 18.7 3 Noroeste 21 Nordeste 0 905.8 0.2 42
2017-08-02 07:00:00 19.3 7 Nordeste 20 Nordeste 0 905.3 -0.3 39
2017-08-02 06:00:00 19.7 9 Nordeste 21 Nordeste 0 905.6 0.3 35
2017-08-02 05:00:00 18 7 Norte 14 Noroeste 0 905.6 0.1 37
2017-08-02 04:00:00 19.5 6 Este 22 Nordeste 0 905.6 0.2 35
2017-08-02 03:00:00 21.4 5 Nordeste 13 Nordeste 0 905.3 0 33
2017-08-02 02:00:00 21.5 6 Nordeste 16 Nordeste 0 905.5 0.4 33
2017-08-02 01:00:00 21.6 3 Nordeste 11 Nordeste 0 905.4 0.7 34
2017-08-02 00:00:00 21.6 6 Noroeste 11 Noroeste 0 905.3 1.4 34
2017-08-01 23:00:00 22.1 6 Noroeste 11 Sudoeste 0 905.1 1.7 33
2017-08-01 22:00:00 23.4 6 Sudoeste 15 Sudoeste 0 904.7 1.6 31
2017-08-01 21:00:00 25.5 7 Sudoeste 20 Sudoeste 0 903.9 0.7 28
2017-08-01 20:00:00 27.3 10 Sudoeste 23 Sudoeste 0 903.4 0.3 27
2017-08-01 19:00:00 27.8 12 Sudoeste 24 Sudoeste 0 903.1 -0.1 27
2017-08-01 18:00:00 27.8 11 Sudoeste 29 Sudoeste 0 903.2 0 26
2017-08-01 17:00:00 27.6 14 Sur 28 Sur 0 903.1 0.6 26
2017-08-01 16:00:00 27.5 12 Sur 33 Sudoeste 0 903.2 0.2 26
2017-08-01 15:00:00 26.9 13 Sur 31 Sur 0 903.2 0 27
2017-08-01 14:00:00 25.6 10 Sudoeste 24 Sudoeste 0 902.5 -0.3 28
2017-08-01 13:00:00 24.9 7 Sur 28 Sudeste 0 903 0.8 30
2017-08-01 12:00:00 23.7 7 Sur 28 Sur 0 903.2 1.4 31
2017-08-01 11:00:00 22.1 9 Sudeste 29 Sudeste 0 902.8 1.5 34
2017-08-01 10:00:00 20.4 8 Sudeste 13 Sur 0 902.2 1.5 37
2017-08-01 09:00:00 19.5 0 Calma 7 Sudeste 0 901.8 1.2 38
2017-08-01 08:00:00 19.3 6 Sudeste 8 Sudeste 0 901.3 1 36
2017-08-01 07:00:00 18.8 4 Nordeste 6 Sur 0 900.7 0.4 36
2017-08-01 06:00:00 19 2 Sudoeste 7 Sudeste 0 900.6 0.9 35
2017-08-01 05:00:00 19.3 3 Sudoeste 6 Oeste 0 900.3 0.3 34
2017-08-01 04:00:00 19.7 3 Sudoeste 7 Oeste 0 900.3 0.3 32
2017-08-01 03:00:00 21.2 4 Sudeste 7 Sudeste 0 899.7 -0.2 30
2017-08-01 02:00:00 21.1 2 Sur 11 Oeste 0 900 0.3 30
2017-08-01 01:00:00 21.5 7 Oeste 14 Sudoeste 0 900 0.8 31
2017-08-01 00:00:00 21.2 6 Oeste 17 Oeste 0 899.9 1.1 32
2017-07-31 23:00:00 22 8 Oeste 18 Oeste 0 899.7 1 29
2017-07-31 22:00:00 23.8 10 Oeste 22 Oeste 0 899.2 0.8 26
2017-07-31 21:00:00 25.3 10 Oeste 23 Sudoeste 0 898.8 0 24
2017-07-31 20:00:00 26.4 12 Sudoeste 37 Sudoeste 0 898.7 -0.2 23
2017-07-31 19:00:00 28.1 18 Sudoeste 41 Sur 0 898.4 -0.9 22
2017-07-31 18:00:00 29 18 Sudoeste 40 Sudoeste 0 898.8 -0.6 22
2017-07-31 17:00:00 29.6 12 Sudoeste 38 Sudoeste 0 898.9 -0.7 23
2017-07-31 16:00:00 29.2 16 Sur 38 Sur 0 899.3 -0.5 24
2017-07-31 15:00:00 28.8 15 Sudoeste 44 Sudoeste 0 899.4 -0.4 25
2017-07-31 14:00:00 28.3 16 Sudoeste 37 Sudoeste 0 899.6 -0.1 26
2017-07-31 13:00:00 27.9 19 Sudoeste 34 Sudoeste 0 899.8 0 27
2017-07-31 12:00:00 26.9 9 Sudoeste 28 Sur 0 899.8 0.4 30
2017-07-31 11:00:00 24.4 9 Sur 22 Sudeste 0 899.7 0.7 32
2017-07-31 10:00:00 23.4 6 Este 13 Sudeste 0 899.8 0.9 33
2017-07-31 09:00:00 21.5 8 Sudeste 13 Sudeste 0 899.4 0.6 35
2017-07-31 08:00:00 19.8 3 Noroeste 5 Noroeste 0 899 -0.1 35
2017-07-31 07:00:00 20 4 Sur 5 Sur 0 898.9 -0.5 34
2017-07-31 06:00:00 19.8 3 Noroeste 5 Este 0 898.8 -0.9 33
2017-07-31 05:00:00 20.7 0 Calma 5 Noroeste 0 899.1 -0.8 32
2017-07-31 04:00:00 21.9 3 Noroeste 11 Este 0 899.4 -0.5 32
2017-07-31 03:00:00 23.3 6 Este 10 Este 0 899.7 -0.4 31
2017-07-31 02:00:00 23.3 6 Este 13 Oeste 0 899.9 -0.5 30
2017-07-31 01:00:00 23.7 6 Oeste 13 Oeste 0 899.9 -0.4 30
2017-07-31 00:00:00 23.9 5 Oeste 14 Oeste 0 900.1 -0.1 30
2017-07-30 23:00:00 25.5 5 Oeste 17 Sudoeste 0 900.4 0.3 28
2017-07-30 22:00:00 27.2 11 Sudoeste 27 Sudoeste 0 900.3 0.2 27
2017-07-30 21:00:00 28.7 18 Sudoeste 35 Sudoeste 0 900.2 -0.5 26
2017-07-30 20:00:00 30.5 18 Sudoeste 46 Sudoeste 0 900.1 -0.8 24
2017-07-30 19:00:00 31.6 23 Sudoeste 46 Sudoeste 0 900.1 -1 23
2017-07-30 18:00:00 31.7 24 Sudoeste 44 Sudoeste 0 900.7 -1.2 24
2017-07-30 17:00:00 32 19 Sudoeste 49 Sudoeste 0 900.9 -1.3 25
2017-07-30 16:00:00 32 15 Sudoeste 46 Sudoeste 0 901.1 -1.7 27
2017-07-30 15:00:00 31.3 14 Sur 43 Sudoeste 0 901.9 -1.2 27
2017-07-30 14:00:00 30.4 17 Sudoeste 37 Sudoeste 0 902.2 -1.1 28
2017-07-30 13:00:00 30.1 10 Sur 24 Sudoeste 0 902.8 -0.4 30
2017-07-30 12:00:00 28.1 13 Sur 24 Sur 0 903.1 -0.2 31
2017-07-30 11:00:00 27.6 8 Sur 17 Sur 0 903.3 0 31
2017-07-30 10:00:00 26.6 6 Sudeste 10 Sudeste 0 903.2 0.1 31
2017-07-30 09:00:00 24 3 Sudeste 7 Sur 0 903.3 0.4 33
2017-07-30 08:00:00 21.5 4 Sudeste 9 Sudeste 0 903.3 0.1 36
2017-07-30 07:00:00 20.7 2 Noroeste 9 Sudeste 0 903.1 -0.5 34
2017-07-30 06:00:00 21.2 4 Oeste 12 Oeste 0 902.9 -1 35
2017-07-30 05:00:00 22.5 4 Este 9 Sudeste 0 903.2 -1.1 32
2017-07-30 04:00:00 22.5 4 Noroeste 12 Oeste 0 903.6 -0.7 32
2017-07-30 03:00:00 23.6 6 Oeste 16 Oeste 0 903.9 -0.5 31
2017-07-30 02:00:00 23.8 4 Oeste 14 Oeste 0 904.3 0 31
2017-07-30 01:00:00 24.1 7 Oeste 16 Oeste 0 904.3 0.3 30
2017-07-30 00:00:00 25.2 8 Oeste 16 Oeste 0 904.4 0.5 29
2017-07-29 23:00:00 26 4 Noroeste 10 Noroeste 0 904.3 0.5 28
2017-07-29 22:00:00 27.1 4 Noroeste 12 Noroeste 0 904 0.3 26
2017-07-29 21:00:00 29.5 5 Noroeste 17 Noroeste 0 903.9 -0.3 25
2017-07-29 20:00:00 31.9 8 Noroeste 31 Oeste 0 903.8 -0.5 23
2017-07-29 19:00:00 32.6 10 Oeste 32 Oeste 0 903.7 -0.8 23
2017-07-29 18:00:00 32.6 12 Oeste 31 Oeste 0 904.2 -0.5 23
2017-07-29 17:00:00 33 11 Oeste 28 Oeste 0 904.3 -0.7 23
2017-07-29 16:00:00 32.2 14 Oeste 32 Oeste 0 904.5 -0.9 24
2017-07-29 15:00:00 31.6 10 Oeste 28 Oeste 0 904.7 -1 28
2017-07-29 14:00:00 30.6 10 Oeste 25 Oeste 0 905 -0.7 29
2017-07-29 13:00:00 28.7 8 Sudoeste 26 Sudeste 0 905.4 -0.2 31
2017-07-29 12:00:00 28 9 Sur 18 Sudeste 0 905.7 0.5 34
2017-07-29 11:00:00 26.8 9 Sudeste 15 Sudeste 0 905.7 1 35
2017-07-29 10:00:00 25.8 7 Sudeste 11 Este 0 905.6 1.1 35
2017-07-29 09:00:00 23.8 0 Calma 6 Sur 0 905.2 0.8 36
2017-07-29 08:00:00 21.5 4 Oeste 8 Sudoeste 0 904.7 0.2 35
2017-07-29 07:00:00 20.8 4 Oeste 11 Oeste 0 904.5 0.1 37
2017-07-29 06:00:00 20.9 7 Oeste 13 Oeste 0 904.4 -0.3 35
2017-07-29 05:00:00 21.6 6 Oeste 14 Oeste 0 904.5 -0.2 37
2017-07-29 04:00:00 21.6 6 Noroeste 9 Noroeste 0 904.4 -0.4 38
2017-07-29 03:00:00 22.6 0 Calma 9 Sudeste 0 904.7 0 35
2017-07-29 02:00:00 24.5 3 Sudoeste 8 Sudoeste 0 904.7 -0.1 35
2017-07-29 01:00:00 24.9 3 Norte 9 Norte 0 904.8 0.6 33
2017-07-29 00:00:00 25.2 5 Norte 10 Norte 0 904.7 0.7 31
2017-07-28 23:00:00 25.9 4 Norte 11 Norte 0 904.8 1.4 29
2017-07-28 22:00:00 27.5 5 Norte 13 Norte 0 904.2 0.9 26
2017-07-28 21:00:00 29.7 8 Noroeste 27 Norte 0 904 0.3 25
2017-07-28 20:00:00 31.9 10 Sur 34 Sudoeste 0 903.4 -0.5 22
2017-07-28 19:00:00 32.4 14 Sudoeste 36 Sudoeste 0 903.3 -1.2 22
2017-07-28 18:00:00 32.7 14 Sur 33 Sudoeste 0 903.7 -1.1 23
2017-07-28 17:00:00 33 9 Sur 30 Sudoeste 0 903.9 -1.2 23
2017-07-28 16:00:00 32.3 15 Sudoeste 28 Sudoeste 0 904.5 -1.1 24
2017-07-28 15:00:00 31.7 12 Sudoeste 39 Sur 0 904.8 -0.6 25
2017-07-28 14:00:00 31.1 12 Sudoeste 30 Sudoeste 0 905.1 -0.4 26
2017-07-28 13:00:00 30.2 10 Sudoeste 22 Sudoeste 0 905.6 0.2 29
2017-07-28 12:00:00 28.3 9 Sur 20 Sudeste 0 905.4 0.4 30
2017-07-28 11:00:00 27.4 8 Sudeste 21 Sudeste 0 905.5 0.8 30
2017-07-28 10:00:00 25.8 4 Sudoeste 10 Oeste 0 905.4 0.9 32
2017-07-28 09:00:00 22.9 0 Calma 8 Oeste 0 905 0.7 35
2017-07-28 08:00:00 20.6 5 Noroeste 12 Noroeste 0 904.7 0.8 36
2017-07-28 07:00:00 20.6 4 Noroeste 6 Noroeste 0 904.5 0.7 32
2017-07-28 06:00:00 21.1 3 Sudoeste 12 Noroeste 0 904.3 0.6 32
2017-07-28 05:00:00 22.6 4 Oeste 9 Sudoeste 0 903.9 0.2 31
2017-07-28 04:00:00 23.6 2 Sur 8 Sur 0 903.8 0.4 29
2017-07-28 03:00:00 24.2 3 Sudeste 10 Sudeste 0 903.7 0.3 28
2017-07-28 02:00:00 24.3 3 Noroeste 15 Norte 0 903.7 0.4 28
2017-07-28 01:00:00 24.7 3 Noroeste 9 Oeste 0 903.4 0.6 26
2017-07-28 00:00:00 25.5 4 Oeste 14 Noroeste 0 903.4 1 26
2017-07-27 23:00:00 26.1 5 Noroeste 22 Noroeste 0 903.3 1.3 28
2017-07-27 22:00:00 27.8 9 Noroeste 19 Noroeste 0 902.8 0.6 28
2017-07-27 21:00:00 29.6 8 Oeste 23 Oeste 0 902.4 0 28
2017-07-27 20:00:00 32.1 12 Oeste 23 Oeste 0 902 -0.7 26
2017-07-27 19:00:00 32.9 9 Sudoeste 32 Oeste 0 902.2 -0.8 26
2017-07-27 18:00:00 33.6 5 Oeste 17 Oeste 0 902.4 -1 26
2017-07-27 17:00:00 31.9 8 Sur 29 Sudoeste 0 902.7 -1.2 27
2017-07-27 16:00:00 32.8 7 Sur 27 Sur 0 903 -1.3 27
2017-07-27 15:00:00 32.1 12 Sudoeste 28 Sudoeste 0 903.4 -1.2 28
2017-07-27 14:00:00 31.2 10 Sudoeste 28 Sudoeste 0 903.9 -0.8 30
2017-07-27 13:00:00 29.9 13 Sur 27 Sur 0 904.3 -0.5 31
2017-07-27 12:00:00 28.2 10 Sudeste 18 Sur 0 904.6 -0.1 33
2017-07-27 11:00:00 26.9 10 Sur 17 Sudeste 0 904.7 0.4 34
2017-07-27 10:00:00 26.6 2 Sur 8 Sudeste 0 904.8 0.6 34
2017-07-27 09:00:00 23.5 3 Noroeste 8 Noroeste 0 904.7 0.7 37
2017-07-27 08:00:00 21.6 6 Norte 10 Noroeste 0 904.3 0.2 38
2017-07-27 07:00:00 20 5 Noroeste 8 Noroeste 0 904.2 0.1 39
2017-07-27 06:00:00 20.5 4 Noroeste 7 Noroeste 0 904 -0.3 38
2017-07-27 05:00:00 20.6 2 Noroeste 5 Nordeste 0 904.1 -0.3 38
2017-07-27 04:00:00 21.1 3 Nordeste 8 Sudoeste 0 904.1 -0.3 37
2017-07-27 03:00:00 21.5 5 Oeste 7 Oeste 0 904.3 0 37
2017-07-27 02:00:00 21.9 3 Sudoeste 9 Sudeste 0 904.4 0.2 36
2017-07-27 01:00:00 22.8 5 Noroeste 9 Noroeste 0 904.4 0.6 35
2017-07-27 00:00:00 23.5 4 Norte 11 Norte 0 904.3 0.9 33
2017-07-26 23:00:00 24.6 6 Norte 16 Norte 0 904.2 1.1 33
2017-07-26 22:00:00 25.6 7 Norte 17 Noroeste 0 903.8 0.8 33
2017-07-26 21:00:00 27.8 11 Norte 21 Norte 0 903.4 0.2 30
2017-07-26 20:00:00 29.5 6 Nordeste 23 Este 0 903.1 -0.4 30
2017-07-26 19:00:00 30.2 8 Este 17 Sudoeste 0 903 -1 30
2017-07-26 18:00:00 30.4 5 Sudoeste 16 Sudoeste 0 903.2 -1.1 30
2017-07-26 17:00:00 29.5 8 Sudoeste 18 Sudeste 0 903.5 -1.2 31
2017-07-26 16:00:00 29 0 Calma 21 Oeste 0 904 -1 32
2017-07-26 15:00:00 28 7 Sudoeste 22 Sur 0 904.3 -0.9 33
2017-07-26 14:00:00 26.7 9 Sur 21 Sur 0 904.7 -0.5 35
2017-07-26 13:00:00 25.6 6 Sudeste 32 Sudeste 0 905 -0.3 37
2017-07-26 12:00:00 24 3 Sudoeste 12 Sudeste 0 905.2 0 40
2017-07-26 11:00:00 22.2 4 Sur 11 Sudoeste 0 905.2 0.5 42
2017-07-26 10:00:00 19.9 3 Sudoeste 8 Sur 0 905.3 0.8 46
2017-07-26 09:00:00 17.7 0 Calma 6 Oeste 0 905.2 1 52
2017-07-26 08:00:00 15 4 Noroeste 9 Noroeste 0 904.7 0.5 53
2017-07-26 07:00:00 13.8 3 Noroeste 11 Noroeste 0 904.5 0.2 54
2017-07-26 06:00:00 14.7 6 Noroeste 11 Noroeste 0 904.2 0 51
2017-07-26 05:00:00 15.6 5 Noroeste 8 Noroeste 0 904.2 0.2 50
2017-07-26 04:00:00 17.3 4 Norte 10 Nordeste 0 904.3 0.5 46
2017-07-26 03:00:00 18.2 3 Sudoeste 26 Norte 0 904.2 0.2 42
2017-07-26 02:00:00 19.1 10 Nordeste 33 Norte 0 904 0 42
2017-07-26 01:00:00 19.1 15 Nordeste 46 Norte 0 903.8 0.4 39
2017-07-26 00:00:00 20.1 18 Norte 46 Nordeste 0 904 0.8 37
2017-07-25 23:00:00 20.7 16 Nordeste 42 Norte 0 904 1 33
2017-07-25 22:00:00 21.1 15 Norte 33 Norte 0 903.4 0.6 31
2017-07-25 21:00:00 23.3 19 Norte 37 Norte 0 903.2 0.3 29
2017-07-25 20:00:00 25.8 16 Norte 35 Norte 0 903 -0.4 28
2017-07-25 19:00:00 26.6 18 Norte 31 Noroeste 0 902.8 -1 27
2017-07-25 18:00:00 27.8 7 Nordeste 19 Noroeste 0 902.9 -1.4 30
2017-07-25 17:00:00 27.8 6 Sudeste 15 Nordeste 0 903.4 -1.4 31
2017-07-25 16:00:00 27.3 3 Este 19 Sur 0 903.8 -1.6 32
2017-07-25 15:00:00 25.3 3 Nordeste 27 Sur 0 904.3 -1.4 35
2017-07-25 14:00:00 24.3 5 Sur 18 Este 0 904.8 -1.1 39
2017-07-25 13:00:00 23 4 Sudeste 16 Este 0 905.4 -0.6 43
2017-07-25 12:00:00 20.5 6 Sur 19 Sudeste 0 905.7 -0.2 49
2017-07-25 11:00:00 19.1 4 Sudeste 21 Sudeste 0 905.9 -0.2 53
2017-07-25 10:00:00 17.3 6 Este 15 Este 0 906 -0.1 59
2017-07-25 09:00:00 14.8 4 Sudoeste 8 Sudoeste 0 905.9 -0.2 67
2017-07-25 08:00:00 13.1 2 Noroeste 9 Sudeste 0 906.1 0.2 73
2017-07-25 07:00:00 12.4 6 Nordeste 11 Nordeste 0 906.1 -0.1 75
2017-07-25 06:00:00 13 2 Sudeste 15 Sudeste 0 906.1 -0.3 70
2017-07-25 05:00:00 13.5 2 Sudoeste 10 Sudeste 0 905.9 -0.8 66
2017-07-25 04:00:00 14.1 4 Sudoeste 12 Nordeste 0 906.2 -0.4 60
2017-07-25 03:00:00 15.8 4 Nordeste 26 Este 0 906.4 -0.1 53
2017-07-25 02:00:00 17.4 10 Este 23 Este 0 906.7 0.3 48
2017-07-25 01:00:00 19.8 9 Nordeste 22 Nordeste 0 906.6 0.7 42
2017-07-25 00:00:00 21.4 8 Nordeste 25 Norte 0 906.5 0.8 37
2017-07-24 23:00:00 22.1 8 Nordeste 21 Nordeste 0 906.4 1.2 35
2017-07-24 22:00:00 23.2 4 Nordeste 24 Norte 0 905.9 0.6 34
2017-07-24 21:00:00 25.4 13 Norte 30 Noroeste 0 905.7 0.2 31
2017-07-24 20:00:00 27.6 13 Norte 31 Nordeste 0 905.2 -0.8 29
2017-07-24 19:00:00 28.6 9 Nordeste 24 Nordeste 0 905.3 -1 30
2017-07-24 18:00:00 28.5 8 Este 22 Este 0 905.5 -1.1 33
2017-07-24 17:00:00 28.5 10 Este 23 Sur 0 906 -0.9 33
2017-07-24 16:00:00 27.7 10 Sudeste 27 Sudeste 0 906.3 -0.8 35
2017-07-24 15:00:00 27 7 Sudeste 29 Este 0 906.6 -0.8 36
2017-07-24 14:00:00 26.8 6 Sur 30 Este 0 906.9 -0.3 37
2017-07-24 13:00:00 25.4 7 Sudeste 40 Sudeste 0 907.1 -0.1 39
2017-07-24 12:00:00 24.4 4 Sudoeste 15 Oeste 0 907.4 0.6 42
2017-07-24 11:00:00 22.9 6 Sudoeste 12 Sudoeste 0 907.2 0.6 45
2017-07-24 10:00:00 21.2 3 Sudoeste 12 Sudoeste 0 907.2 0.9 48
2017-07-24 09:00:00 19.3 4 Sudoeste 6 Sudoeste 0 906.8 0.6 49
2017-07-24 08:00:00 17 5 Noroeste 12 Oeste 0 906.6 0.4 57
2017-07-24 07:00:00 17.1 3 Oeste 9 Oeste 0 906.3 0.1 54
2017-07-24 06:00:00 17.6 4 Oeste 12 Oeste 0 906.2 -0.2 53
2017-07-24 05:00:00 19.1 6 Nordeste 10 Norte 0 906.2 -0.4 42
2017-07-24 04:00:00 19.9 3 Noroeste 15 Noroeste 0 906.2 -0.3 42
2017-07-24 03:00:00 20.3 0 Calma 16 Oeste 0 906.4 0 41
2017-07-24 02:00:00 20.9 5 Oeste 11 Oeste 0 906.6 0.4 35
2017-07-24 01:00:00 21.7 2 Sudeste 8 Norte 0 906.5 0.5 32
2017-07-24 00:00:00 22.4 5 Norte 19 Norte 0 906.4 0.6 31
2017-07-23 23:00:00 23.2 9 Norte 22 Norte 0 906.2 0.8 31
2017-07-23 22:00:00 23.8 6 Norte 22 Noroeste 0 906 0.8 31
2017-07-23 21:00:00 25.8 11 Noroeste 27 Oeste 0 905.8 0.7 29
2017-07-23 20:00:00 27.7 11 Noroeste 29 Oeste 0 905.4 0 27
2017-07-23 19:00:00 29 11 Oeste 34 Oeste 0 905.2 -0.2 27
2017-07-23 18:00:00 29.7 11 Noroeste 36 Oeste 0 905.1 -0.8 27
2017-07-23 17:00:00 30 14 Oeste 33 Oeste 0 905.4 -1.1 25
2017-07-23 16:00:00 30 8 Oeste 27 Sudoeste 0 905.4 -1.2 27
2017-07-23 15:00:00 29.3 11 Oeste 29 Sudoeste 0 905.9 -0.7 27
2017-07-23 14:00:00 28.4 13 Sur 36 Sur 0 906.5 0.1 29
2017-07-23 13:00:00 27.9 5 Sur 21 Sudoeste 0 906.6 0.4 30
2017-07-23 12:00:00 27 7 Sur 17 Sudeste 0 906.6 0.4 31
2017-07-23 11:00:00 25.9 8 Sudeste 17 Este 0 906.4 0.6 32
2017-07-23 10:00:00 23.8 3 Noroeste 10 Noroeste 0 906.2 0.6 37
2017-07-23 09:00:00 22.2 0 Calma 6 Norte 0 906.2 1 37
2017-07-23 08:00:00 19.1 5 Norte 12 Noroeste 0 905.8 0.7 39
2017-07-23 07:00:00 18.7 4 Nordeste 8 Nordeste 0 905.6 0.5 37
2017-07-23 06:00:00 19 7 Norte 11 Norte 0 905.2 0.3 38
2017-07-23 05:00:00 18.6 8 Noroeste 12 Noroeste 0 905.1 0.3 39
2017-07-23 04:00:00 19.4 6 Noroeste 10 Norte 0 905.1 0.3 35
2017-07-23 03:00:00 19.4 4 Noroeste 12 Nordeste 0 904.9 0.2 35
2017-07-23 02:00:00 20.5 3 Nordeste 12 Norte 0 904.8 0.3 34
2017-07-23 01:00:00 21.4 6 Norte 14 Norte 0 904.8 1 34
2017-07-23 00:00:00 22 8 Norte 17 Norte 0 904.7 1.5 33
2017-07-22 23:00:00 22.5 5 Noroeste 15 Sudoeste 0 904.5 1.7 31
2017-07-22 22:00:00 24.1 6 Sudoeste 18 Sur 0 903.8 1.1 28
2017-07-22 21:00:00 26.1 8 Sur 22 Sur 0 903.2 0.4 26
2017-07-22 20:00:00 27.7 8 Sudoeste 25 Sur 0 902.8 -0.1 26
2017-07-22 19:00:00 27.9 15 Sudoeste 32 Sudoeste 0 902.7 -0.3 27
2017-07-22 18:00:00 28.3 9 Sudoeste 37 Sudoeste 0 902.8 -0.1 27
2017-07-22 17:00:00 27.7 14 Sudoeste 32 Sudoeste 0 902.9 -0.3 26
2017-07-22 16:00:00 27.2 16 Sudoeste 32 Sudoeste 0 903 -0.3 27
2017-07-22 15:00:00 26.9 14 Sur 32 Sur 0 902.9 -0.4 27
2017-07-22 14:00:00 26.3 14 Sudoeste 28 Sudoeste 0 903.2 -0.2 30
2017-07-22 13:00:00 25.8 7 Sur 23 Sur 0 903.3 0.2 33
2017-07-22 12:00:00 24.7 6 Sur 16 Sur 0 903.3 0.5 34
2017-07-22 11:00:00 23.3 8 Este 18 Este 0 903.4 1.1 36
2017-07-22 10:00:00 23 7 Este 15 Este 0 903.1 1.2 36
2017-07-22 09:00:00 19.5 2 Oeste 9 Norte 0 902.8 1.4 41
2017-07-22 08:00:00 18 3 Nordeste 7 Nordeste 0 902.3 1 40
2017-07-22 07:00:00 16 5 Noroeste 9 Noroeste 0 901.9 0.8 42
2017-07-22 06:00:00 16.4 5 Noroeste 8 Noroeste 0 901.4 0.4 40
2017-07-22 05:00:00 17 0 Calma 10 Oeste 0 901.3 0.4 38
2017-07-22 04:00:00 17.7 4 Oeste 8 Sudoeste 0 901.1 0.1 37
2017-07-22 03:00:00 18.2 2 Norte 11 Sudoeste 0 901 -0.1 35
2017-07-22 02:00:00 18.8 5 Oeste 8 Oeste 0 900.9 0.1 35
2017-07-22 01:00:00 19.2 4 Noroeste 9 Oeste 0 901 0.8 35
2017-07-22 00:00:00 20.1 4 Noroeste 8 Noroeste 0 901.1 1.2 35
2017-07-21 23:00:00 21.6 3 Norte 10 Norte 0 900.8 1.3 33
2017-07-21 22:00:00 22.9 0 Calma 10 Oeste 0 900.2 0.9 33
2017-07-21 21:00:00 25.3 6 Noroeste 17 Sur 0 899.9 0.5 31
2017-07-21 20:00:00 27.1 10 Sudoeste 23 Oeste 0 899.5 0.1 31
2017-07-21 19:00:00 26.9 13 Sur 27 Sudeste 0 899.3 -0.3 30
2017-07-21 18:00:00 27.3 12 Sur 31 Sudoeste 0 899.4 -0.4 30
2017-07-21 17:00:00 26.6 15 Sudoeste 36 Sudoeste 0 899.4 -0.4 30
2017-07-21 16:00:00 26.8 14 Sudoeste 39 Sudoeste 0 899.6 -0.4 30
2017-07-21 15:00:00 26 17 Sudoeste 37 Sudoeste 0 899.8 -0.3 30
2017-07-21 14:00:00 25.6 18 Sudoeste 41 Sudoeste 0 899.8 -0.5 33
2017-07-21 13:00:00 24.8 13 Sur 48 Sur 0 900 -0.1 34
2017-07-21 12:00:00 23.8 12 Sur 23 Sur 0 900.1 0.4 39
2017-07-21 11:00:00 22.7 6 Sur 13 Sudeste 0 900.3 1 41
2017-07-21 10:00:00 21.3 4 Sur 8 Sudeste 0 900.1 1 44
2017-07-21 09:00:00 19.2 2 Noroeste 12 Este 0 899.7 0.7 47
2017-07-21 08:00:00 18.5 8 Este 13 Este 0 899.3 0.2 47
2017-07-21 07:00:00 17.6 4 Norte 14 Norte 0 899.1 0.2 47
2017-07-21 06:00:00 17.8 3 Nordeste 13 Nordeste 0 899 0 47
2017-07-21 05:00:00 19.3 10 Este 22 Este 0 899.1 0 44
2017-07-21 04:00:00 19.5 14 Este 19 Nordeste 0 898.9 -0.4 42
2017-07-21 03:00:00 20.3 9 Este 15 Este 0 899 -0.6 37
2017-07-21 02:00:00 20.3 4 Noroeste 7 Noroeste 0 899.1 -0.9 39
2017-07-21 01:00:00 21.1 3 Oeste 13 Oeste 0 899.3 -0.6 36
2017-07-21 00:00:00 21.2 6 Oeste 11 Oeste 0 899.6 0 33
2017-07-20 23:00:00 21.9 6 Oeste 13 Oeste 0 900 0.3 32
2017-07-20 22:00:00 23 5 Oeste 17 Sudoeste 0 899.9 0.1 30
2017-07-20 21:00:00 24.7 8 Sudoeste 19 Sudoeste 0 899.6 -0.5 25
2017-07-20 20:00:00 26.6 10 Sur 23 Sudoeste 0 899.7 -0.8 25
2017-07-20 19:00:00 27.2 8 Sudoeste 26 Sudoeste 0 899.8 -1.1 27
2017-07-20 18:00:00 28.1 6 Sudoeste 24 Sudoeste 0 900.1 -1.3 29
2017-07-20 17:00:00 27.5 8 Sudeste 30 Sur 0 900.5 -1.6 30
2017-07-20 16:00:00 27.3 5 Sudoeste 18 Sudoeste 0 900.9 -1.6 32
2017-07-20 15:00:00 26 7 Sudoeste 21 Sudoeste 0 901.4 -1.3 33
2017-07-20 14:00:00 25.3 5 Sudoeste 34 Sudeste 0 902.1 -0.7 37
2017-07-20 13:00:00 24.2 6 Sudoeste 17 Sudeste 0 902.5 -0.2 40
2017-07-20 12:00:00 23.5 6 Sur 18 Sudeste 0 902.7 0.1 43
2017-07-20 11:00:00 22.2 7 Sudeste 19 Sudeste 0 902.8 0.8 46
2017-07-20 10:00:00 21.2 3 Sudeste 14 Este 0 902.7 1 49
2017-07-20 09:00:00 18.6 2 Sur 9 Sudoeste 0 902.6 1.3 55
2017-07-20 08:00:00 17 3 Sudoeste 9 Sur 0 902 0.7 56
2017-07-20 07:00:00 15.7 3 Oeste 9 Noroeste 0 901.7 0.2 59
2017-07-20 06:00:00 16.3 5 Noroeste 10 Noroeste 0 901.3 -0.5 54
2017-07-20 05:00:00 17.1 6 Oeste 10 Oeste 0 901.3 -0.4 53
2017-07-20 04:00:00 17.7 7 Noroeste 14 Oeste 0 901.5 -0.2 48
2017-07-20 03:00:00 19.6 7 Sudoeste 14 Sudoeste 0 901.8 0 44
2017-07-20 02:00:00 19.7 4 Oeste 8 Oeste 0 901.7 -0.2 42
2017-07-20 01:00:00 20.2 4 Nordeste 9 Nordeste 0 901.7 0.1 39
2017-07-20 00:00:00 21.2 0 Calma 9 Norte 0 901.8 0.6 37
2017-07-19 23:00:00 22 5 Noroeste 10 Oeste 0 901.9 1.2 36
2017-07-19 22:00:00 23.3 3 Noroeste 14 Noroeste 0 901.6 0.9 35
2017-07-19 21:00:00 25.6 8 Noroeste 24 Oeste 0 901.2 0.4 33
2017-07-19 20:00:00 26.8 14 Sudoeste 36 Sudoeste 0 900.7 -0.5 31
2017-07-19 19:00:00 26.1 13 Sudoeste 36 Sudoeste 0 900.7 -0.9 30
2017-07-19 18:00:00 27.3 16 Sudoeste 35 Sudoeste 0 900.8 -1.2 30
2017-07-19 17:00:00 27 16 Sudoeste 35 Sudoeste 0 901.2 -0.8 31
2017-07-19 16:00:00 27.7 11 Sudoeste 41 Sudoeste 0 901.6 -0.7 29
2017-07-19 15:00:00 26.9 13 Sudoeste 34 Sudoeste 0 902 -0.4 30
2017-07-19 14:00:00 25.9 13 Sudoeste 39 Sur 0 902 -0.4 33
2017-07-19 13:00:00 25.5 15 Sudoeste 31 Sudoeste 0 902.3 0 33
2017-07-19 12:00:00 24.1 16 Sudoeste 30 Sudoeste 0 902.4 0.2 33
2017-07-19 11:00:00 23 15 Sudoeste 31 Sur 0 902.4 0.7 36
2017-07-19 10:00:00 21.9 15 Sudoeste 29 Sudoeste 0 902.3 0.9 37
2017-07-19 09:00:00 20.7 9 Sudoeste 18 Sudoeste 0 902.2 1 39
2017-07-19 08:00:00 20 7 Sudoeste 12 Sudoeste 0 901.7 0.8 38
2017-07-19 07:00:00 20.1 3 Sudoeste 18 Oeste 0 901.4 0.2 37
2017-07-19 06:00:00 20.6 6 Sudoeste 21 Sudoeste 0 901.2 -0.1 38
2017-07-19 05:00:00 20.9 9 Sudoeste 20 Sudoeste 0 900.9 -0.2 39
2017-07-19 04:00:00 21.6 2 Sur 9 Sur 0 901.2 -0.1 40
2017-07-19 03:00:00 22 0 Calma 7 Este 0 901.3 -0.2 39
2017-07-19 02:00:00 22.2 4 Norte 8 Norte 0 901.1 0.1 39
2017-07-19 01:00:00 22.7 4 Nordeste 12 Este 0 901.3 1 38
2017-07-19 00:00:00 23.1 12 Este 29 Sudeste 0 901.5 1.3 37